Time;durP1;ratioP1;P1;durP2;ratioP2;P2;SDS_P1;SDS_P2;PMS_P1;PMS_P2;Temp;Humidity;BMP_temperature;BMP_pressure;BME280_temperature;BME280_humidity;BME280_pressure;Samples;Min_cycle;Max_cycle;Signal;HPM_P1;HPM_P2
2022/08/14 00:03:00;;;;;;;8.93;7.68;;;;;;;;;;10272510;28;20065;-58
2022/08/14 00:07:58;;;;;;;12.70;8.38;;;;;;;;;;10272949;28;20084;-57
2022/08/14 00:12:57;;;;;;;10.48;8.25;;;;;;;;;;10272862;28;20093;-56
2022/08/14 00:17:55;;;;;;;13.50;8.13;;;;;;;;;;10272791;28;20072;-56
2022/08/14 00:22:55;;;;;;;8.70;7.90;;;;;;;;;;10272908;28;20037;-58
2022/08/14 00:27:55;;;;;;;11.35;8.15;;;;;;;;;;10272158;28;20072;-56
2022/08/14 00:32:54;;;;;;;12.75;8.27;;;;;;;;;;10271542;28;20103;-58
2022/08/14 00:37:53;;;;;;;12.43;10.00;;;;;;;;;;10271889;28;20072;-57
2022/08/14 00:42:54;;;;;;;24.45;10.07;;;;;;;;;;10270025;28;20057;-57
2022/08/14 00:47:53;;;;;;;11.27;8.43;;;;;;;;;;10271999;28;20096;-57
2022/08/14 00:52:54;;;;;;;9.10;8.20;;;;;;;;;;10272295;28;20080;-57
2022/08/14 01:03:08;;;;;;;11.35;9.90;;;;;;;;;;10275337;28;20088;-57
2022/08/14 01:08:06;;;;;;;12.30;9.23;;;;;;;;;;10278589;28;20075;-57
2022/08/14 01:13:27;;;;;;;8.65;7.10;;;;;;;;;;10278469;28;20076;-57
2022/08/14 01:24:01;;;;;;;11.13;7.80;;;;;;;;;;10278984;28;20068;-58
2022/08/14 01:29:04;;;;;;;9.10;7.30;;;;;;;;;;10278924;28;20033;-57
2022/08/14 01:34:04;;;;;;;7.85;7.03;;;;;;;;;;10278557;28;20076;-59
2022/08/14 01:39:24;;;;;;;8.85;7.32;;;;;;;;;;10277127;28;20060;-57
2022/08/14 01:44:27;;;;;;;7.40;6.63;;;;;;;;;;10276618;28;20083;-58
2022/08/14 01:49:31;;;;;;;9.57;7.10;;;;;;;;;;10276621;28;20068;-57
2022/08/14 01:54:34;;;;;;;8.30;6.97;;;;;;;;;;10276338;28;20529;-57
2022/08/14 01:59:36;;;;;;;7.78;6.95;;;;;;;;;;10276598;28;20084;-59
2022/08/14 02:04:40;;;;;;;9.90;8.10;;;;;;;;;;10274413;28;20072;-59
2022/08/14 02:09:56;;;;;;;7.80;7.00;;;;;;;;;;10269285;28;20072;-59
2022/08/14 02:14:54;;;;;;;8.10;6.85;;;;;;;;;;10275731;28;20079;-59
2022/08/14 02:19:58;;;;;;;7.22;6.50;;;;;;;;;;10275642;28;20072;-59
2022/08/14 02:25:01;;;;;;;10.13;7.20;;;;;;;;;;10269199;28;20068;-59
2022/08/14 02:29:59;;;;;;;7.22;6.63;;;;;;;;;;10269563;28;20087;-59
2022/08/14 02:35:00;;;;;;;8.18;6.50;;;;;;;;;;10269383;28;20073;-59
2022/08/14 02:39:58;;;;;;;8.30;6.60;;;;;;;;;;10274702;28;20152;-58
2022/08/14 02:44:58;;;;;;;7.32;6.50;;;;;;;;;;10267860;28;20069;-59
2022/08/14 02:49:56;;;;;;;7.63;6.93;;;;;;;;;;10267934;28;20076;-59
2022/08/14 02:54:56;;;;;;;10.18;6.57;;;;;;;;;;10274049;28;20084;-59
2022/08/14 02:59:56;;;;;;;7.03;6.32;;;;;;;;;;10273248;28;20107;-59
2022/08/14 03:04:55;;;;;;;7.75;6.95;;;;;;;;;;10273432;28;20069;-60
2022/08/14 03:09:55;;;;;;;7.82;7.07;;;;;;;;;;10273181;28;20069;-58
2022/08/14 03:15:14;;;;;;;8.25;6.85;;;;;;;;;;10272741;28;20557;-56
2022/08/14 03:20:15;;;;;;;8.65;7.57;;;;;;;;;;10273589;28;20060;-57
2022/08/14 03:25:14;;;;;;;10.52;6.20;;;;;;;;;;10271926;28;20074;-63
2022/08/14 03:30:13;;;;;;;6.65;6.05;;;;;;;;;;10272584;28;20077;-59
2022/08/14 03:35:21;;;;;;;7.57;6.97;;;;;;;;;;10273037;28;20513;-59
2022/08/14 03:40:37;;;;;;;7.75;7.00;;;;;;;;;;10272337;28;20544;-59
2022/08/14 03:45:36;;;;;;;7.90;6.82;;;;;;;;;;10272737;28;20064;-59
2022/08/14 03:50:50;;;;;;;8.32;7.63;;;;;;;;;;10268545;28;20140;-59
2022/08/14 03:55:55;;;;;;;7.38;6.68;;;;;;;;;;10269331;28;20076;-58
2022/08/14 04:00:54;;;;;;;9.60;6.90;;;;;;;;;;10272484;28;20069;-59
2022/08/14 04:05:54;;;;;;;8.38;6.90;;;;;;;;;;10272216;28;20076;-59
2022/08/14 04:10:53;;;;;;;9.48;8.63;;;;;;;;;;10272312;28;20080;-59
2022/08/14 04:15:51;;;;;;;8.30;7.50;;;;;;;;;;10272119;28;20068;-59
2022/08/14 04:21:01;;;;;;;10.35;8.13;;;;;;;;;;10271540;28;20075;-59
2022/08/14 04:26:02;;;;;;;9.13;8.32;;;;;;;;;;10271776;28;20069;-59
2022/08/14 04:31:00;;;;;;;11.55;10.38;;;;;;;;;;10271402;28;20075;-58
2022/08/14 04:36:02;;;;;;;9.93;9.05;;;;;;;;;;10274263;28;20069;-59
2022/08/14 04:46:17;;;;;;;12.85;10.10;;;;;;;;;;10277606;28;20099;-58
2022/08/14 04:51:37;;;;;;;8.98;8.07;;;;;;;;;;10279808;28;20540;-59
2022/08/14 04:56:53;;;;;;;8.98;7.18;;;;;;;;;;10275562;28;20077;-59
2022/08/14 05:01:52;;;;;;;12.00;8.70;;;;;;;;;;10279125;28;20079;-59
2022/08/14 05:06:56;;;;;;;11.40;10.18;;;;;;;;;;10278634;28;20068;-59
2022/08/14 05:11:54;;;;;;;8.95;8.15;;;;;;;;;;10278904;28;20080;-60
2022/08/14 05:17:12;;;;;;;8.98;7.13;;;;;;;;;;10278153;28;20074;-59
2022/08/14 05:22:12;;;;;;;9.45;7.90;;;;;;;;;;10277885;28;20073;-59
2022/08/14 05:27:19;;;;;;;9.45;8.57;;;;;;;;;;10278244;28;20076;-59
2022/08/14 05:32:20;;;;;;;10.70;8.43;;;;;;;;;;10277395;28;20067;-59
2022/08/14 05:37:21;;;;;;;20.88;18.52;;;;;;;;;;10278320;28;20060;-59
2022/08/14 05:42:20;;;;;;;19.08;11.63;;;;;;;;;;10272086;28;20124;-59
2022/08/14 05:47:31;;;;;;;12.60;11.30;;;;;;;;;;10277345;28;20079;-60
2022/08/14 05:52:38;;;;;;;11.90;10.02;;;;;;;;;;10276528;28;20506;-58
2022/08/14 05:57:46;;;;;;;19.30;10.98;;;;;;;;;;10272205;28;20045;-59
2022/08/14 06:02:44;;;;;;;13.35;10.07;;;;;;;;;;10275205;28;20187;-59
2022/08/14 06:07:44;;;;;;;10.23;9.15;;;;;;;;;;10276526;28;20465;-58
2022/08/14 06:12:43;;;;;;;15.73;11.38;;;;;;;;;;10277189;28;20078;-57
2022/08/14 06:18:01;;;;;;;14.80;10.35;;;;;;;;;;10274202;28;20079;-58
2022/08/14 06:23:01;;;;;;;11.45;9.32;;;;;;;;;;10274098;28;20079;-58
2022/08/14 06:28:00;;;;;;;16.95;10.27;;;;;;;;;;10276343;28;20072;-58
2022/08/14 06:33:01;;;;;;;21.95;12.75;;;;;;;;;;10273736;28;20377;-60
2022/08/14 06:38:05;;;;;;;14.95;10.90;;;;;;;;;;10274080;28;20477;-58
2022/08/14 06:43:04;;;;;;;12.63;10.30;;;;;;;;;;10272322;28;20072;-59
2022/08/14 06:48:04;;;;;;;13.90;12.02;;;;;;;;;;10272826;28;20056;-58
2022/08/14 06:53:04;;;;;;;14.90;10.35;;;;;;;;;;10273290;28;20071;-59
2022/08/14 06:58:03;;;;;;;15.57;10.43;;;;;;;;;;10272537;28;20067;-57
2022/08/14 07:08:21;;;;;;;16.70;12.35;;;;;;;;;;10273841;28;20073;-58
2022/08/14 07:13:23;;;;;;;15.90;11.63;;;;;;;;;;10273610;28;20065;-58
2022/08/14 07:18:22;;;;;;;13.93;11.02;;;;;;;;;;10274449;28;20489;-59
2022/08/14 07:23:22;;;;;;;18.08;12.32;;;;;;;;;;10273160;28;20080;-59
2022/08/14 07:28:23;;;;;;;12.32;10.63;;;;;;;;;;10273253;28;20537;-59
2022/08/14 07:33:22;;;;;;;16.08;11.82;;;;;;;;;;10274519;28;20069;-59
2022/08/14 07:38:28;;;;;;;13.02;11.73;;;;;;;;;;10275372;28;20083;-59
2022/08/14 07:43:34;;;;;;;13.43;12.02;;;;;;;;;;10274160;28;20088;-60
2022/08/14 07:48:37;;;;;;;12.35;11.00;;;;;;;;;;10269397;28;20079;-59
2022/08/14 07:53:37;;;;;;;15.15;11.30;;;;;;;;;;10269849;28;20075;-59
2022/08/14 07:58:38;;;;;;;12.00;10.80;;;;;;;;;;10269434;28;20080;-58
2022/08/14 08:03:49;;;;;;;16.30;12.18;;;;;;;;;;10273136;28;20080;-59
2022/08/14 08:08:58;;;;;;;12.85;11.60;;;;;;;;;;10273042;28;20068;-59
2022/08/14 08:14:01;;;;;;;18.08;12.32;;;;;;;;;;10281207;28;20083;-60
2022/08/14 08:18:59;;;;;;;15.93;11.60;;;;;;;;;;10282572;28;20056;-59
2022/08/14 08:24:12;;;;;;;15.90;13.35;;;;;;;;;;10281780;28;20052;-60
2022/08/14 08:29:19;;;;;;;14.48;12.55;;;;;;;;;;10280629;28;20052;-59
2022/08/14 08:34:25;;;;;;;15.52;13.15;;;;;;;;;;10280566;28;20077;-59
2022/08/14 08:39:25;;;;;;;14.60;12.52;;;;;;;;;;10274119;28;20065;-59
2022/08/14 08:44:44;;;;;;;19.85;13.32;;;;;;;;;;10280372;28;20087;-59
2022/08/14 08:49:43;;;;;;;18.00;13.10;;;;;;;;;;10279248;28;20071;-59
2022/08/14 08:54:57;;;;;;;14.27;12.77;;;;;;;;;;10279383;28;20067;-59
2022/08/14 08:59:56;;;;;;;15.25;13.38;;;;;;;;;;10280550;28;20191;-58
2022/08/14 09:05:01;;;;;;;18.92;13.82;;;;;;;;;;10278800;28;20033;-59
2022/08/14 09:10:01;;;;;;;17.05;13.02;;;;;;;;;;10278460;28;20068;-58
2022/08/14 09:15:01;;;;;;;17.23;13.38;;;;;;;;;;10271300;28;20608;-58
2022/08/14 09:20:00;;;;;;;18.33;12.82;;;;;;;;;;10270288;28;20076;-58
2022/08/14 09:25:02;;;;;;;17.98;13.35;;;;;;;;;;10271013;28;20095;-58
2022/08/14 09:30:06;;;;;;;18.45;10.65;;;;;;;;;;10271625;28;20513;-59
2022/08/14 09:35:28;;;;;;;23.02;8.88;;;;;;;;;;10278189;28;20041;-59
2022/08/14 09:40:47;;;;;;;12.73;8.23;;;;;;;;;;10278482;28;20089;-59
2022/08/14 09:45:48;;;;;;;12.30;7.22;;;;;;;;;;10277563;28;20080;-59
2022/08/14 09:50:51;;;;;;;13.65;8.18;;;;;;;;;;10274560;28;20068;-58
2022/08/14 09:55:58;;;;;;;13.25;6.43;;;;;;;;;;10277056;28;20072;-60
2022/08/14 10:00:59;;;;;;;15.65;9.57;;;;;;;;;;10275937;28;20087;-59
2022/08/14 10:06:07;;;;;;;14.95;8.70;;;;;;;;;;10276897;28;20064;-59
2022/08/14 10:11:13;;;;;;;13.73;7.75;;;;;;;;;;10276789;28;20072;-59
2022/08/14 10:16:13;;;;;;;15.00;10.43;;;;;;;;;;10277608;28;20536;-58
2022/08/14 10:21:23;;;;;;;12.93;11.65;;;;;;;;;;10277527;28;20186;-58
2022/08/14 10:26:23;;;;;;;10.68;8.13;;;;;;;;;;10277109;28;20537;-58
2022/08/14 10:31:28;;;;;;;8.70;7.65;;;;;;;;;;10271205;28;20473;-58
2022/08/14 10:36:42;;;;;;;7.20;6.47;;;;;;;;;;10274215;28;20053;-59
2022/08/14 10:41:44;;;;;;;;;;;;;;;;;;10275254;28;20095;-59
2022/08/14 10:46:45;;;;;;;7.95;7.15;;;;;;;;;;10269743;28;19964;-58
2022/08/14 10:52:06;;;;;;;9.60;8.60;;;;;;;;;;10272079;28;20088;-59
2022/08/14 10:57:12;;;;;;;9.95;8.38;;;;;;;;;;10274979;28;21298;-59
2022/08/14 11:02:24;;;;;;;11.25;10.13;;;;;;;;;;10274555;28;20072;-59
2022/08/14 11:07:54;;;;;;;7.78;6.45;;;;;;;;;;10274099;28;20041;-57
2022/08/14 11:12:56;;;;;;;8.43;7.25;;;;;;;;;;10273803;28;21135;-59
2022/08/14 11:17:57;;;;;;;7.10;6.20;;;;;;;;;;10273724;28;20415;-58
2022/08/14 11:23:00;;;;;;;10.07;7.63;;;;;;;;;;10274054;28;20533;-59
2022/08/14 11:27:59;;;;;;;8.52;7.63;;;;;;;;;;10273964;28;20447;-59
2022/08/14 11:32:59;;;;;;;10.73;8.32;;;;;;;;;;10272717;28;20060;-59
2022/08/14 11:38:00;;;;;;;20.73;18.73;;;;;;;;;;10274102;28;20068;-59
2022/08/14 11:43:00;;;;;;;12.10;10.80;;;;;;;;;;10273012;28;20080;-59
2022/08/14 11:48:01;;;;;;;15.15;10.50;;;;;;;;;;10271354;28;20049;-61
2022/08/14 11:53:20;;;;;;;12.00;9.60;;;;;;;;;;10272356;28;20088;-58
2022/08/14 11:58:24;;;;;;;14.45;12.85;;;;;;;;;;10270745;28;20069;-59
2022/08/14 12:03:36;;;;;;;17.95;15.60;;;;;;;;;;10273121;28;20120;-59
2022/08/14 12:08:52;;;;;;;11.43;9.13;;;;;;;;;;10270893;28;20073;-58
2022/08/14 12:13:53;;;;;;;15.35;10.07;;;;;;;;;;10273057;28;21679;-59
2022/08/14 12:18:57;;;;;;;9.98;8.07;;;;;;;;;;10269946;28;20079;-60
2022/08/14 12:24:03;;;;;;;11.67;7.23;;;;;;;;;;10272829;28;20088;-58
2022/08/14 12:29:07;;;;;;;8.65;6.57;;;;;;;;;;10272684;28;20068;-59
2022/08/14 12:34:08;;;;;;;14.05;9.10;;;;;;;;;;10271781;28;20068;-59
2022/08/14 12:39:17;;;;;;;25.45;12.05;;;;;;;;;;10269024;28;20069;-59
2022/08/14 12:44:15;;;;;;;15.05;9.95;;;;;;;;;;10271072;28;20103;-60
2022/08/14 12:49:21;;;;;;;15.38;12.45;;;;;;;;;;10272385;28;20037;-57
2022/08/14 12:54:23;;;;;;;14.57;10.15;;;;;;;;;;10273017;28;20077;-58
2022/08/14 12:59:29;;;;;;;12.67;9.13;;;;;;;;;;10278852;28;20045;-58
2022/08/14 13:04:30;;;;;;;14.57;9.20;;;;;;;;;;10280251;28;20465;-58
2022/08/14 13:09:33;;;;;;;12.23;10.13;;;;;;;;;;10278300;28;20041;-58
2022/08/14 13:14:35;;;;;;;15.07;10.18;;;;;;;;;;10278763;28;20080;-58
2022/08/14 13:19:36;;;;;;;17.65;11.50;;;;;;;;;;10278474;28;20171;-57
2022/08/14 13:24:37;;;;;;;13.20;9.85;;;;;;;;;;10278157;28;20088;-56
2022/08/14 13:29:39;;;;;;;12.02;10.93;;;;;;;;;;10275584;28;20072;-57
2022/08/14 13:34:39;;;;;;;11.93;10.18;;;;;;;;;;10274774;28;20072;-57
2022/08/14 13:39:38;;;;;;;11.88;10.65;;;;;;;;;;10274703;28;20072;-58
2022/08/14 13:44:37;;;;;;;16.30;10.32;;;;;;;;;;10271171;28;20083;-58
2022/08/14 13:49:42;;;;;;;13.45;11.73;;;;;;;;;;10276583;28;20557;-58
2022/08/14 13:54:58;;;;;;;12.80;11.00;;;;;;;;;;10277744;28;20060;-58
2022/08/14 13:59:59;;;;;;;10.65;9.13;;;;;;;;;;10276276;28;20083;-58
2022/08/14 14:05:13;;;;;;;7.85;7.15;;;;;;;;;;10277624;28;20080;-59
2022/08/14 14:10:13;;;;;;;10.15;7.90;;;;;;;;;;10275532;28;20148;-58
2022/08/14 14:15:15;;;;;;;12.75;9.60;;;;;;;;;;10275841;28;20076;-58
2022/08/14 14:20:17;;;;;;;8.75;7.95;;;;;;;;;;10274757;28;20081;-56
2022/08/14 14:25:33;;;;;;;7.45;6.72;;;;;;;;;;10275834;28;20072;-59
2022/08/14 14:30:45;;;;;;;8.48;7.68;;;;;;;;;;10275378;28;20544;-57
2022/08/14 14:35:52;;;;;;;7.75;6.95;;;;;;;;;;10271670;28;20068;-58
2022/08/14 14:40:51;;;;;;;7.75;6.95;;;;;;;;;;10274707;28;20433;-57
2022/08/14 14:45:58;;;;;;;9.60;8.55;;;;;;;;;;10275135;28;20064;-57
2022/08/14 14:51:00;;;;;;;8.48;6.82;;;;;;;;;;10275078;28;20069;-58
2022/08/14 14:55:58;;;;;;;6.65;6.05;;;;;;;;;;10275052;28;20500;-57
2022/08/14 15:01:22;;;;;;;8.15;7.35;;;;;;;;;;10272950;28;20084;-58
2022/08/14 15:06:22;;;;;;;12.05;8.68;;;;;;;;;;10273346;28;20068;-57
2022/08/14 15:11:28;;;;;;;10.13;8.13;;;;;;;;;;10273947;28;20068;-59
2022/08/14 15:16:27;;;;;;;9.48;8.02;;;;;;;;;;10273733;28;20116;-59
2022/08/14 15:21:27;;;;;;;10.00;8.35;;;;;;;;;;10272937;28;20064;-59
2022/08/14 15:26:28;;;;;;;9.80;8.60;;;;;;;;;;10273584;28;20485;-59
2022/08/14 15:31:29;;;;;;;7.53;6.80;;;;;;;;;;10272954;28;20064;-59
2022/08/14 15:36:29;;;;;;;8.27;6.72;;;;;;;;;;10272632;28;20069;-59
2022/08/14 15:41:28;;;;;;;7.47;6.63;;;;;;;;;;10272949;28;20087;-58
2022/08/14 15:46:38;;;;;;;7.85;7.13;;;;;;;;;;10272538;28;20492;-58
2022/08/14 15:51:41;;;;;;;6.47;5.93;;;;;;;;;;10272020;28;20065;-59
2022/08/14 15:56:40;;;;;;;8.35;7.07;;;;;;;;;;10272275;28;20144;-58
2022/08/14 16:01:40;;;;;;;6.53;5.93;;;;;;;;;;10271698;28;20072;-58
2022/08/14 16:06:54;;;;;;;7.05;6.40;;;;;;;;;;10267484;28;20080;-58
2022/08/14 16:11:52;;;;;;;7.35;6.57;;;;;;;;;;10271867;28;20076;-59
2022/08/14 16:16:53;;;;;;;11.40;10.25;;;;;;;;;;10272383;28;20091;-59
2022/08/14 16:22:02;;;;;;;7.72;6.43;;;;;;;;;;10273549;28;20037;-58
2022/08/14 16:27:21;;;;;;;10.27;8.43;;;;;;;;;;10273603;28;20430;-58
2022/08/14 16:32:38;;;;;;;10.80;8.10;;;;;;;;;;10277055;28;20079;-58
2022/08/14 16:37:53;;;;;;;9.23;8.43;;;;;;;;;;10280395;28;20041;-59
2022/08/14 16:42:56;;;;;;;20.42;18.55;;;;;;;;;;10280665;28;20107;-58
2022/08/14 16:48:10;;;;;;;23.88;21.95;;;;;;;;;;10281195;28;20505;-58
2022/08/14 16:53:30;;;;;;;9.80;7.90;;;;;;;;;;10276307;28;20102;-58
2022/08/14 16:58:32;;;;;;;;;;;;;;;;;;10275909;28;20072;-57
2022/08/14 17:03:30;;;;;;;9.45;6.80;;;;;;;;;;10279519;28;19956;-58
2022/08/14 17:08:40;;;;;;;15.82;14.20;;;;;;;;;;10274714;28;20072;-59
2022/08/14 17:13:44;;;;;;;9.43;6.72;;;;;;;;;;10278942;28;20076;-57
2022/08/14 17:18:59;;;;;;;12.33;7.43;;;;;;;;;;10280254;28;20041;-59
2022/08/14 17:24:03;;;;;;;10.20;7.88;;;;;;;;;;10279890;28;20076;-58
2022/08/14 17:29:22;;;;;;;9.10;8.32;;;;;;;;;;10277638;28;20072;-58
2022/08/14 17:34:43;;;;;;;9.15;8.15;;;;;;;;;;10277008;28;20045;-58
2022/08/14 17:39:41;;;;;;;;;;;;;;;;;;10277492;28;20455;-57
2022/08/14 17:44:46;;;;;;;11.80;10.80;;;;;;;;;;10276204;28;19966;-58
2022/08/14 17:49:46;;;;;;;10.13;9.13;;;;;;;;;;10276566;28;20088;-58
2022/08/14 17:54:50;;;;;;;10.90;9.73;;;;;;;;;;10276811;28;20510;-59
2022/08/14 18:00:00;;;;;;;10.65;9.65;;;;;;;;;;10276689;28;20045;-58
2022/08/14 18:05:01;;;;;;;15.63;10.82;;;;;;;;;;10283151;28;20076;-58
2022/08/14 18:10:00;;;;;;;13.13;11.80;;;;;;;;;;10277583;28;20071;-58
2022/08/14 18:15:21;;;;;;;11.60;10.55;;;;;;;;;;10277299;28;20095;-57
2022/08/14 18:20:36;;;;;;;10.80;9.82;;;;;;;;;;10277047;28;20486;-58
2022/08/14 18:25:54;;;;;;;11.85;10.65;;;;;;;;;;10276280;28;20083;-60
2022/08/14 18:31:17;;;;;;;13.00;11.70;;;;;;;;;;10275565;28;20136;-58
2022/08/14 18:36:38;;;;;;;13.38;11.70;;;;;;;;;;10273106;28;20069;-59
2022/08/14 18:41:47;;;;;;;13.27;12.15;;;;;;;;;;10272881;28;20111;-58
2022/08/14 18:47:04;;;;;;;14.82;13.13;;;;;;;;;;10278987;28;20525;-53
2022/08/14 18:52:16;;;;;;;15.07;13.18;;;;;;;;;;10274656;28;20174;-58
2022/08/14 18:57:16;;;;;;;13.98;12.55;;;;;;;;;;10276545;28;20068;-57
2022/08/14 19:02:38;;;;;;;14.25;12.27;;;;;;;;;;10273547;28;20073;-58
2022/08/14 19:07:42;;;;;;;14.60;13.10;;;;;;;;;;10269894;28;20080;-57
2022/08/14 19:13:03;;;;;;;12.90;11.80;;;;;;;;;;10273377;28;20087;-57
2022/08/14 19:18:22;;;;;;;13.18;11.80;;;;;;;;;;10273490;28;20061;-57
2022/08/14 19:23:25;;;;;;;15.48;12.23;;;;;;;;;;10268896;28;20667;-59
2022/08/14 19:28:44;;;;;;;12.43;11.32;;;;;;;;;;10269748;28;20072;-59
2022/08/14 19:33:51;;;;;;;13.25;11.93;;;;;;;;;;10268900;28;20083;-57
2022/08/14 19:38:59;;;;;;;13.00;11.80;;;;;;;;;;10267154;28;20549;-58
2022/08/14 19:44:11;;;;;;;14.50;11.70;;;;;;;;;;10270105;28;20159;-58
2022/08/14 19:49:10;;;;;;;13.48;12.20;;;;;;;;;;10271759;28;20064;-58
2022/08/14 19:54:10;;;;;;;15.38;13.88;;;;;;;;;;10269035;28;20064;-59
2022/08/14 19:59:16;;;;;;;12.25;11.10;;;;;;;;;;10272007;28;20072;-59
2022/08/14 20:04:21;;;;;;;11.82;10.35;;;;;;;;;;10269216;28;20659;-58
2022/08/14 20:09:43;;;;;;;12.88;11.77;;;;;;;;;;10266303;28;20080;-59
2022/08/14 20:15:02;;;;;;;12.70;11.57;;;;;;;;;;10269310;28;20111;-57
2022/08/14 20:20:03;;;;;;;12.60;11.40;;;;;;;;;;10271342;28;20359;-58
2022/08/14 20:25:15;;;;;;;12.10;11.05;;;;;;;;;;10271560;28;20076;-59
2022/08/14 20:30:18;;;;;;;13.25;10.85;;;;;;;;;;10271436;28;20077;-58
2022/08/14 20:35:32;;;;;;;12.80;11.80;;;;;;;;;;10269428;28;20601;-58
2022/08/14 20:40:36;;;;;;;12.60;11.43;;;;;;;;;;10271382;28;20091;-59
2022/08/14 20:45:47;;;;;;;;;;;;;;;;;;10267783;28;20101;-58
2022/08/14 20:50:46;;;;;;;14.10;12.80;;;;;;;;;;10269208;28;19952;-60
2022/08/14 20:55:48;;;;;;;16.42;13.43;;;;;;;;;;10270081;28;20083;-59
2022/08/14 21:00:59;;;;;;;13.57;12.18;;;;;;;;;;10266670;28;20084;-58
2022/08/14 21:06:01;;;;;;;13.68;12.43;;;;;;;;;;10268755;28;20088;-57
2022/08/14 21:11:15;;;;;;;13.07;11.88;;;;;;;;;;10264974;28;20064;-58
2022/08/14 21:16:16;;;;;;;12.48;11.45;;;;;;;;;;10265917;28;20076;-58
2022/08/14 21:21:34;;;;;;;12.48;11.43;;;;;;;;;;10274718;28;20083;-58
2022/08/14 21:26:39;;;;;;;13.02;11.88;;;;;;;;;;10274160;28;20080;-59
2022/08/14 21:31:57;;;;;;;15.35;13.95;;;;;;;;;;10279219;28;20069;-58
2022/08/14 21:36:57;;;;;;;14.98;13.45;;;;;;;;;;10278727;28;20076;-59
2022/08/14 21:41:58;;;;;;;14.23;12.98;;;;;;;;;;10277792;28;20552;-59
2022/08/14 21:46:56;;;;;;;16.42;13.30;;;;;;;;;;10277617;28;20494;-59
2022/08/14 21:51:56;;;;;;;15.48;13.68;;;;;;;;;;10278100;28;20079;-58
2022/08/14 21:57:19;;;;;;;15.20;13.73;;;;;;;;;;10277842;28;20056;-58
2022/08/14 22:02:39;;;;;;;15.20;13.70;;;;;;;;;;10277246;28;20041;-58
2022/08/14 22:07:49;;;;;;;15.43;13.93;;;;;;;;;;10276577;28;20088;-58
2022/08/14 22:12:52;;;;;;;16.02;14.52;;;;;;;;;;10276567;28;20533;-58
2022/08/14 22:17:59;;;;;;;16.02;14.18;;;;;;;;;;10277358;28;20068;-59
2022/08/14 22:23:03;;;;;;;14.13;12.90;;;;;;;;;;10277949;28;20073;-59
2022/08/14 22:28:04;;;;;;;14.38;12.90;;;;;;;;;;10277678;28;20458;-58
2022/08/14 22:33:04;;;;;;;15.30;13.00;;;;;;;;;;10276103;28;20073;-58
2022/08/14 22:38:07;;;;;;;14.23;12.90;;;;;;;;;;10274578;28;20467;-57
2022/08/14 22:43:27;;;;;;;13.18;11.95;;;;;;;;;;10275850;28;20135;-58
2022/08/14 22:48:28;;;;;;;14.45;12.95;;;;;;;;;;10275867;28;20077;-58
2022/08/14 22:53:26;;;;;;;15.55;12.57;;;;;;;;;;10275823;28;20084;-58
2022/08/14 22:58:28;;;;;;;12.30;11.23;;;;;;;;;;10275350;28;20069;-58
2022/08/14 23:03:32;;;;;;;13.55;12.35;;;;;;;;;;10274813;28;20083;-58
2022/08/14 23:08:33;;;;;;;12.75;11.68;;;;;;;;;;10275467;28;20122;-59
2022/08/14 23:13:53;;;;;;;14.85;13.45;;;;;;;;;;10275914;28;20092;-59
2022/08/14 23:18:52;;;;;;;14.85;13.35;;;;;;;;;;10275337;28;20064;-59
2022/08/14 23:23:52;;;;;;;16.67;13.80;;;;;;;;;;10274542;28;20045;-58
2022/08/14 23:28:53;;;;;;;13.95;12.50;;;;;;;;;;10273011;28;20095;-57
2022/08/14 23:33:54;;;;;;;14.20;12.75;;;;;;;;;;10274366;28;20045;-60
2022/08/14 23:38:53;;;;;;;12.93;11.73;;;;;;;;;;10274225;28;20072;-58
2022/08/14 23:43:55;;;;;;;14.45;12.68;;;;;;;;;;10272093;28;20817;-58
2022/08/14 23:48:54;;;;;;;13.65;12.25;;;;;;;;;;10272742;28;20073;-59
2022/08/14 23:53:52;;;;;;;14.85;13.55;;;;;;;;;;10273249;28;20537;-58
2022/08/14 23:58:51;;;;;;;15.20;12.63;;;;;;;;;;10273761;28;20065;-58
